sensor_id;sensor_type;location;lat;lon;timestamp;pressure;altitude;pressure_sealevel;temperature;humidity
48680;BME280;34475;51.658;5.634;2023-02-13T00:00:00;103500;;;7.4;100.0
48680;BME280;34475;51.658;5.634;2023-02-13T00:01:00;103490;;;7.5;100.0
48680;BME280;34475;51.658;5.634;2023-02-13T00:02:00;103490;;;7.5;100.0
48680;BME280;34475;51.658;5.634;2023-02-13T00:03:00;103490;;;7.5;100.0
48680;BME280;34475;51.658;5.634;2023-02-13T00:04:00;103490;;;7.5;100.0
48680;BME280;34475;51.658;5.634;2023-02-13T00:05:00;103490;;;7.5;100.0
48680;BME280;34475;51.658;5.634;2023-02-13T00:06:00;103490;;;7.5;100.0
48680;BME280;34475;51.658;5.634;2023-02-13T00:07:00;103490;;;7.6;100.0
48680;BME280;34475;51.658;5.634;2023-02-13T00:08:00;103490;;;7.6;100.0
48680;BME280;34475;51.658;5.634;2023-02-13T00:09:00;103490;;;7.6;100.0
48680;BME280;34475;51.658;5.634;2023-02-13T00:10:00;103490;;;7.6;100.0
48680;BME280;34475;51.658;5.634;2023-02-13T00:11:00;103480;;;7.5;100.0
48680;BME280;34475;51.658;5.634;2023-02-13T00:12:00;103480;;;7.5;100.0
48680;BME280;34475;51.658;5.634;2023-02-13T00:13:00;103480;;;7.5;100.0
48680;BME280;34475;51.658;5.634;2023-02-13T00:14:00;103480;;;7.5;100.0
48680;BME280;34475;51.658;5.634;2023-02-13T00:15:00;103490;;;7.6;100.0
48680;BME280;34475;51.658;5.634;2023-02-13T00:16:01;103490;;;7.6;100.0
48680;BME280;34475;51.658;5.634;2023-02-13T00:17:00;103480;;;7.5;100.0
48680;BME280;34475;51.658;5.634;2023-02-13T00:18:00;103480;;;7.5;100.0
48680;BME280;34475;51.658;5.634;2023-02-13T00:19:00;103490;;;7.5;100.0
48680;BME280;34475;51.658;5.634;2023-02-13T00:20:00;103490;;;7.5;100.0
48680;BME280;34475;51.658;5.634;2023-02-13T00:21:01;103490;;;7.6;100.0
48680;BME280;34475;51.658;5.634;2023-02-13T00:22:00;103490;;;7.6;100.0
48680;BME280;34475;51.658;5.634;2023-02-13T00:23:00;103480;;;7.5;100.0
48680;BME280;34475;51.658;5.634;2023-02-13T00:24:00;103480;;;7.5;100.0
48680;BME280;34475;51.658;5.634;2023-02-13T00:25:00;103480;;;7.4;100.0
48680;BME280;34475;51.658;5.634;2023-02-13T00:26:00;103480;;;7.4;100.0
48680;BME280;34475;51.658;5.634;2023-02-13T00:27:00;103480;;;7.5;100.0
48680;BME280;34475;51.658;5.634;2023-02-13T00:28:00;103480;;;7.5;100.0
48680;BME280;34475;51.658;5.634;2023-02-13T00:29:00;103480;;;7.6;100.0
48680;BME280;34475;51.658;5.634;2023-02-13T00:30:00;103480;;;7.6;100.0
48680;BME280;34475;51.658;5.634;2023-02-13T00:31:02;103480;;;7.6;100.0
48680;BME280;34475;51.658;5.634;2023-02-13T00:32:00;103480;;;7.6;100.0
48680;BME280;34475;51.658;5.634;2023-02-13T00:33:00;103480;;;7.6;100.0
48680;BME280;34475;51.658;5.634;2023-02-13T00:34:00;103480;;;7.6;100.0
48680;BME280;34475;51.658;5.634;2023-02-13T00:35:00;103480;;;7.5;100.0
48680;BME280;34475;51.658;5.634;2023-02-13T00:36:02;103480;;;7.5;100.0
48680;BME280;34475;51.658;5.634;2023-02-13T00:37:00;103480;;;7.5;100.0
48680;BME280;34475;51.658;5.634;2023-02-13T00:38:00;103480;;;7.5;100.0
48680;BME280;34475;51.658;5.634;2023-02-13T00:39:00;103480;;;7.4;100.0
48680;BME280;34475;51.658;5.634;2023-02-13T00:40:00;103480;;;7.4;100.0
48680;BME280;34475;51.658;5.634;2023-02-13T00:41:00;103480;;;7.5;100.0
48680;BME280;34475;51.658;5.634;2023-02-13T00:42:00;103480;;;7.5;100.0
48680;BME280;34475;51.658;5.634;2023-02-13T00:43:00;103470;;;7.5;100.0
48680;BME280;34475;51.658;5.634;2023-02-13T00:44:00;103470;;;7.5;100.0
48680;BME280;34475;51.658;5.634;2023-02-13T00:45:00;103470;;;7.6;100.0
48680;BME280;34475;51.658;5.634;2023-02-13T00:46:00;103470;;;7.6;100.0
48680;BME280;34475;51.658;5.634;2023-02-13T00:47:00;103470;;;7.6;100.0
48680;BME280;34475;51.658;5.634;2023-02-13T00:48:00;103470;;;7.6;100.0
48680;BME280;34475;51.658;5.634;2023-02-13T00:49:00;103470;;;7.7;100.0
48680;BME280;34475;51.658;5.634;2023-02-13T00:50:00;103470;;;7.7;100.0
48680;BME280;34475;51.658;5.634;2023-02-13T00:51:00;103470;;;7.5;100.0
48680;BME280;34475;51.658;5.634;2023-02-13T00:52:00;103470;;;7.5;100.0
48680;BME280;34475;51.658;5.634;2023-02-13T00:53:00;103470;;;7.5;100.0
48680;BME280;34475;51.658;5.634;2023-02-13T00:54:00;103470;;;7.5;100.0
48680;BME280;34475;51.658;5.634;2023-02-13T00:55:00;103480;;;7.6;100.0
48680;BME280;34475;51.658;5.634;2023-02-13T00:56:00;103480;;;7.6;100.0
48680;BME280;34475;51.658;5.634;2023-02-13T00:57:00;103480;;;7.6;100.0
48680;BME280;34475;51.658;5.634;2023-02-13T00:58:00;103480;;;7.6;100.0
48680;BME280;34475;51.658;5.634;2023-02-13T00:59:00;103470;;;7.6;100.0
48680;BME280;34475;51.658;5.634;2023-02-13T01:00:00;103470;;;7.6;100.0
48680;BME280;34475;51.658;5.634;2023-02-13T01:01:00;103470;;;7.5;100.0
48680;BME280;34475;51.658;5.634;2023-02-13T01:02:00;103470;;;7.5;100.0
48680;BME280;34475;51.658;5.634;2023-02-13T01:03:00;103470;;;7.5;100.0
48680;BME280;34475;51.658;5.634;2023-02-13T01:04:00;103470;;;7.5;100.0
48680;BME280;34475;51.658;5.634;2023-02-13T01:05:00;103470;;;7.6;100.0
48680;BME280;34475;51.658;5.634;2023-02-13T01:06:00;103470;;;7.6;100.0
48680;BME280;34475;51.658;5.634;2023-02-13T01:07:00;103470;;;7.7;100.0
48680;BME280;34475;51.658;5.634;2023-02-13T01:08:00;103470;;;7.7;100.0
48680;BME280;34475;51.658;5.634;2023-02-13T01:09:01;103480;;;7.5;100.0
48680;BME280;34475;51.658;5.634;2023-02-13T01:10:00;103480;;;7.5;100.0
48680;BME280;34475;51.658;5.634;2023-02-13T01:11:00;103480;;;7.5;100.0
48680;BME280;34475;51.658;5.634;2023-02-13T01:12:00;103480;;;7.5;100.0
48680;BME280;34475;51.658;5.634;2023-02-13T01:13:00;103480;;;7.6;100.0
48680;BME280;34475;51.658;5.634;2023-02-13T01:14:00;103480;;;7.6;100.0
48680;BME280;34475;51.658;5.634;2023-02-13T01:15:00;103480;;;7.5;100.0
48680;BME280;34475;51.658;5.634;2023-02-13T01:16:00;103480;;;7.5;100.0
48680;BME280;34475;51.658;5.634;2023-02-13T01:17:00;103480;;;7.6;100.0
48680;BME280;34475;51.658;5.634;2023-02-13T01:18:00;103480;;;7.6;100.0
48680;BME280;34475;51.658;5.634;2023-02-13T01:19:00;103480;;;7.5;100.0
48680;BME280;34475;51.658;5.634;2023-02-13T01:20:00;103480;;;7.5;100.0
48680;BME280;34475;51.658;5.634;2023-02-13T01:21:01;103480;;;7.4;100.0
48680;BME280;34475;51.658;5.634;2023-02-13T01:22:00;103480;;;7.4;100.0
48680;BME280;34475;51.658;5.634;2023-02-13T01:23:00;103480;;;7.5;100.0
48680;BME280;34475;51.658;5.634;2023-02-13T01:24:01;103480;;;7.5;100.0
48680;BME280;34475;51.658;5.634;2023-02-13T01:25:00;103480;;;7.5;100.0
48680;BME280;34475;51.658;5.634;2023-02-13T01:26:02;103480;;;7.5;100.0
48680;BME280;34475;51.658;5.634;2023-02-13T01:27:00;103480;;;7.4;100.0
48680;BME280;34475;51.658;5.634;2023-02-13T01:28:00;103480;;;7.4;100.0
48680;BME280;34475;51.658;5.634;2023-02-13T01:29:00;103480;;;7.4;100.0
48680;BME280;34475;51.658;5.634;2023-02-13T01:30:00;103480;;;7.4;100.0
48680;BME280;34475;51.658;5.634;2023-02-13T01:31:00;103480;;;7.4;100.0
48680;BME280;34475;51.658;5.634;2023-02-13T01:32:00;103480;;;7.4;100.0
48680;BME280;34475;51.658;5.634;2023-02-13T01:33:00;103480;;;7.4;100.0
48680;BME280;34475;51.658;5.634;2023-02-13T01:34:00;103480;;;7.4;100.0
48680;BME280;34475;51.658;5.634;2023-02-13T01:35:00;103470;;;7.6;100.0
48680;BME280;34475;51.658;5.634;2023-02-13T01:36:04;103470;;;7.6;100.0
48680;BME280;34475;51.658;5.634;2023-02-13T01:37:00;103470;;;7.5;100.0
48680;BME280;34475;51.658;5.634;2023-02-13T01:38:00;103470;;;7.5;100.0
48680;BME280;34475;51.658;5.634;2023-02-13T01:39:00;103470;;;7.5;100.0
48680;BME280;34475;51.658;5.634;2023-02-13T01:40:00;103470;;;7.5;100.0
48680;BME280;34475;51.658;5.634;2023-02-13T01:41:00;103470;;;7.5;100.0
48680;BME280;34475;51.658;5.634;2023-02-13T01:42:00;103470;;;7.5;100.0
48680;BME280;34475;51.658;5.634;2023-02-13T01:43:00;103480;;;7.5;100.0
48680;BME280;34475;51.658;5.634;2023-02-13T01:44:00;103480;;;7.5;100.0
48680;BME280;34475;51.658;5.634;2023-02-13T01:45:02;103480;;;7.5;100.0
48680;BME280;34475;51.658;5.634;2023-02-13T01:46:00;103480;;;7.5;100.0
48680;BME280;34475;51.658;5.634;2023-02-13T01:47:00;103480;;;7.5;100.0
48680;BME280;34475;51.658;5.634;2023-02-13T01:48:01;103480;;;7.5;100.0
48680;BME280;34475;51.658;5.634;2023-02-13T01:49:02;103470;;;7.5;100.0
48680;BME280;34475;51.658;5.634;2023-02-13T01:50:05;103470;;;7.5;100.0
48680;BME280;34475;51.658;5.634;2023-02-13T01:51:01;103470;;;7.4;100.0
48680;BME280;34475;51.658;5.634;2023-02-13T01:52:00;103470;;;7.4;100.0
48680;BME280;34475;51.658;5.634;2023-02-13T01:53:24;103470;;;7.4;100.0
48680;BME280;34475;51.658;5.634;2023-02-13T01:54:04;103470;;;7.4;100.0
48680;BME280;34475;51.658;5.634;2023-02-13T01:55:00;103460;;;7.4;100.0
48680;BME280;34475;51.658;5.634;2023-02-13T01:56:01;103460;;;7.4;100.0
48680;BME280;34475;51.658;5.634;2023-02-13T01:57:02;103460;;;7.5;100.0
48680;BME280;34475;51.658;5.634;2023-02-13T01:58:01;103460;;;7.5;100.0
48680;BME280;34475;51.658;5.634;2023-02-13T01:59:01;103460;;;7.4;100.0
48680;BME280;34475;51.658;5.634;2023-02-13T02:00:02;103460;;;7.4;100.0
48680;BME280;34475;51.658;5.634;2023-02-13T02:01:00;103460;;;7.5;100.0
48680;BME280;34475;51.658;5.634;2023-02-13T02:02:00;103460;;;7.5;100.0
48680;BME280;34475;51.658;5.634;2023-02-13T02:03:01;103460;;;7.5;100.0
48680;BME280;34475;51.658;5.634;2023-02-13T02:05:00;103460;;;7.6;100.0
48680;BME280;34475;51.658;5.634;2023-02-13T02:06:00;103460;;;7.6;100.0
48680;BME280;34475;51.658;5.634;2023-02-13T02:07:01;103460;;;7.5;100.0
48680;BME280;34475;51.658;5.634;2023-02-13T02:08:00;103460;;;7.5;100.0
48680;BME280;34475;51.658;5.634;2023-02-13T02:09:02;103460;;;7.4;100.0
48680;BME280;34475;51.658;5.634;2023-02-13T02:10:02;103460;;;7.4;100.0
48680;BME280;34475;51.658;5.634;2023-02-13T02:11:02;103460;;;7.4;100.0
48680;BME280;34475;51.658;5.634;2023-02-13T02:12:02;103460;;;7.4;100.0
48680;BME280;34475;51.658;5.634;2023-02-13T02:13:16;103450;;;7.4;100.0
48680;BME280;34475;51.658;5.634;2023-02-13T02:14:00;103450;;;7.4;100.0
48680;BME280;34475;51.658;5.634;2023-02-13T02:15:00;103450;;;7.5;100.0
48680;BME280;34475;51.658;5.634;2023-02-13T02:16:00;103450;;;7.5;100.0
48680;BME280;34475;51.658;5.634;2023-02-13T02:17:00;103450;;;7.4;100.0
48680;BME280;34475;51.658;5.634;2023-02-13T02:18:00;103450;;;7.4;100.0
48680;BME280;34475;51.658;5.634;2023-02-13T02:19:01;103450;;;7.5;100.0
48680;BME280;34475;51.658;5.634;2023-02-13T02:24:08;103450;;;7.5;100.0
48680;BME280;34475;51.658;5.634;2023-02-13T02:25:17;103450;;;7.6;100.0
48680;BME280;34475;51.658;5.634;2023-02-13T02:30:06;103450;;;7.4;100.0
48680;BME280;34475;51.658;5.634;2023-02-13T02:35:05;103450;;;7.4;100.0
48680;BME280;34475;51.658;5.634;2023-02-13T02:37:03;103450;;;7.4;100.0
48680;BME280;34475;51.658;5.634;2023-02-13T02:43:11;103450;;;7.3;100.0
48680;BME280;34475;51.658;5.634;2023-02-13T02:44:05;103450;;;7.3;100.0
48680;BME280;34475;51.658;5.634;2023-02-13T02:45:04;103440;;;7.4;100.0
48680;BME280;34475;51.658;5.634;2023-02-13T02:46:10;103440;;;7.4;100.0
48680;BME280;34475;51.658;5.634;2023-02-13T02:48:20;103450;;;7.4;100.0
48680;BME280;34475;51.658;5.634;2023-02-13T02:49:03;103450;;;7.3;100.0
48680;BME280;34475;51.658;5.634;2023-02-13T02:50:05;103450;;;7.3;100.0
48680;BME280;34475;51.658;5.634;2023-02-13T02:52:03;103450;;;7.3;100.0
48680;BME280;34475;51.658;5.634;2023-02-13T02:56:04;103440;;;7.3;100.0
48680;BME280;34475;51.658;5.634;2023-02-13T02:57:02;103440;;;7.3;100.0
48680;BME280;34475;51.658;5.634;2023-02-13T02:58:04;103440;;;7.3;100.0
48680;BME280;34475;51.658;5.634;2023-02-13T02:59:04;103440;;;7.3;100.0
48680;BME280;34475;51.658;5.634;2023-02-13T03:00:00;103440;;;7.3;100.0
48680;BME280;34475;51.658;5.634;2023-02-13T03:01:00;103440;;;7.2;100.0
48680;BME280;34475;51.658;5.634;2023-02-13T03:02:00;103440;;;7.2;100.0
48680;BME280;34475;51.658;5.634;2023-02-13T03:03:00;103440;;;7.3;100.0
48680;BME280;34475;51.658;5.634;2023-02-13T03:04:00;103440;;;7.3;100.0
48680;BME280;34475;51.658;5.634;2023-02-13T03:05:00;103440;;;7.4;100.0
48680;BME280;34475;51.658;5.634;2023-02-13T03:06:00;103440;;;7.4;100.0
48680;BME280;34475;51.658;5.634;2023-02-13T03:07:01;103440;;;7.3;100.0
48680;BME280;34475;51.658;5.634;2023-02-13T03:08:01;103440;;;7.3;100.0
48680;BME280;34475;51.658;5.634;2023-02-13T03:09:01;103440;;;7.2;100.0
48680;BME280;34475;51.658;5.634;2023-02-13T03:10:03;103440;;;7.2;100.0
48680;BME280;34475;51.658;5.634;2023-02-13T03:11:00;103440;;;7.2;100.0
48680;BME280;34475;51.658;5.634;2023-02-13T03:12:00;103440;;;7.2;100.0
48680;BME280;34475;51.658;5.634;2023-02-13T03:13:01;103440;;;7.1;100.0
48680;BME280;34475;51.658;5.634;2023-02-13T03:14:00;103440;;;7.1;100.0
48680;BME280;34475;51.658;5.634;2023-02-13T03:15:00;103440;;;7.1;100.0
48680;BME280;34475;51.658;5.634;2023-02-13T03:16:00;103440;;;7.1;100.0
48680;BME280;34475;51.658;5.634;2023-02-13T03:17:00;103440;;;7.1;100.0
48680;BME280;34475;51.658;5.634;2023-02-13T03:18:00;103440;;;7.1;100.0
48680;BME280;34475;51.658;5.634;2023-02-13T03:19:00;103440;;;7.0;100.0
48680;BME280;34475;51.658;5.634;2023-02-13T03:21:04;103440;;;7.0;100.0
48680;BME280;34475;51.658;5.634;2023-02-13T03:22:03;103440;;;7.0;100.0
48680;BME280;34475;51.658;5.634;2023-02-13T03:24:03;103440;;;7.0;100.0
48680;BME280;34475;51.658;5.634;2023-02-13T03:25:10;103450;;;6.9;100.0
48680;BME280;34475;51.658;5.634;2023-02-13T03:27:08;103440;;;6.9;100.0
48680;BME280;34475;51.658;5.634;2023-02-13T03:28:02;103440;;;6.9;100.0
48680;BME280;34475;51.658;5.634;2023-02-13T03:29:13;103440;;;6.8;100.0
48680;BME280;34475;51.658;5.634;2023-02-13T03:30:02;103440;;;6.8;100.0
48680;BME280;34475;51.658;5.634;2023-02-13T03:32:04;103440;;;6.8;100.0
48680;BME280;34475;51.658;5.634;2023-02-13T03:34:01;103440;;;6.7;100.0
48680;BME280;34475;51.658;5.634;2023-02-13T03:35:03;103450;;;6.6;100.0
48680;BME280;34475;51.658;5.634;2023-02-13T03:36:06;103450;;;6.6;100.0
48680;BME280;34475;51.658;5.634;2023-02-13T03:37:02;103450;;;6.6;100.0
48680;BME280;34475;51.658;5.634;2023-02-13T03:38:02;103450;;;6.6;100.0
48680;BME280;34475;51.658;5.634;2023-02-13T03:39:08;103450;;;6.5;100.0
48680;BME280;34475;51.658;5.634;2023-02-13T03:41:03;103450;;;6.5;100.0
48680;BME280;34475;51.658;5.634;2023-02-13T03:42:00;103450;;;6.5;100.0
48680;BME280;34475;51.658;5.634;2023-02-13T03:43:09;103450;;;6.5;100.0
48680;BME280;34475;51.658;5.634;2023-02-13T03:44:17;103450;;;6.5;100.0
48680;BME280;34475;51.658;5.634;2023-02-13T03:45:03;103450;;;6.4;100.0
48680;BME280;34475;51.658;5.634;2023-02-13T03:46:00;103450;;;6.4;100.0
48680;BME280;34475;51.658;5.634;2023-02-13T03:47:00;103450;;;6.3;100.0
48680;BME280;34475;51.658;5.634;2023-02-13T03:48:00;103450;;;6.3;100.0
48680;BME280;34475;51.658;5.634;2023-02-13T03:49:01;103450;;;6.3;100.0
48680;BME280;34475;51.658;5.634;2023-02-13T03:50:00;103450;;;6.3;100.0
48680;BME280;34475;51.658;5.634;2023-02-13T03:51:00;103450;;;6.3;100.0
48680;BME280;34475;51.658;5.634;2023-02-13T03:52:06;103450;;;6.3;100.0
48680;BME280;34475;51.658;5.634;2023-02-13T03:53:01;103450;;;6.2;100.0
48680;BME280;34475;51.658;5.634;2023-02-13T03:54:00;103450;;;6.2;100.0
48680;BME280;34475;51.658;5.634;2023-02-13T03:55:03;103450;;;6.2;100.0
48680;BME280;34475;51.658;5.634;2023-02-13T03:56:00;103450;;;6.2;100.0
48680;BME280;34475;51.658;5.634;2023-02-13T03:57:00;103450;;;6.2;100.0
48680;BME280;34475;51.658;5.634;2023-02-13T03:58:02;103450;;;6.2;100.0
48680;BME280;34475;51.658;5.634;2023-02-13T03:59:00;103450;;;6.1;100.0
48680;BME280;34475;51.658;5.634;2023-02-13T04:00:00;103450;;;6.1;100.0
48680;BME280;34475;51.658;5.634;2023-02-13T04:01:00;103450;;;6.0;100.0
48680;BME280;34475;51.658;5.634;2023-02-13T04:02:02;103450;;;6.0;100.0
48680;BME280;34475;51.658;5.634;2023-02-13T04:03:05;103450;;;6.0;100.0
48680;BME280;34475;51.658;5.634;2023-02-13T04:04:04;103450;;;6.0;100.0
48680;BME280;34475;51.658;5.634;2023-02-13T04:05:05;103440;;;6.0;100.0
48680;BME280;34475;51.658;5.634;2023-02-13T04:06:02;103440;;;6.0;100.0
48680;BME280;34475;51.658;5.634;2023-02-13T04:07:02;103440;;;5.9;100.0
48680;BME280;34475;51.658;5.634;2023-02-13T04:08:00;103440;;;5.9;100.0
48680;BME280;34475;51.658;5.634;2023-02-13T04:09:00;103450;;;5.8;100.0
48680;BME280;34475;51.658;5.634;2023-02-13T04:10:02;103450;;;5.8;100.0
48680;BME280;34475;51.658;5.634;2023-02-13T04:11:04;103450;;;5.8;100.0
48680;BME280;34475;51.658;5.634;2023-02-13T04:12:04;103450;;;5.8;100.0
48680;BME280;34475;51.658;5.634;2023-02-13T04:14:00;103450;;;5.8;100.0
48680;BME280;34475;51.658;5.634;2023-02-13T04:15:05;103450;;;5.7;100.0
48680;BME280;34475;51.658;5.634;2023-02-13T04:16:02;103450;;;5.7;100.0
48680;BME280;34475;51.658;5.634;2023-02-13T04:17:02;103450;;;5.7;100.0
48680;BME280;34475;51.658;5.634;2023-02-13T04:18:08;103450;;;5.7;100.0
48680;BME280;34475;51.658;5.634;2023-02-13T04:19:00;103450;;;5.7;100.0
48680;BME280;34475;51.658;5.634;2023-02-13T04:20:00;103450;;;5.7;100.0
48680;BME280;34475;51.658;5.634;2023-02-13T04:21:02;103450;;;5.7;100.0
48680;BME280;34475;51.658;5.634;2023-02-13T04:22:00;103450;;;5.7;100.0
48680;BME280;34475;51.658;5.634;2023-02-13T04:23:04;103450;;;5.7;100.0
48680;BME280;34475;51.658;5.634;2023-02-13T04:24:00;103450;;;5.7;100.0
48680;BME280;34475;51.658;5.634;2023-02-13T04:25:00;103450;;;5.6;100.0
48680;BME280;34475;51.658;5.634;2023-02-13T04:26:01;103450;;;5.6;100.0
48680;BME280;34475;51.658;5.634;2023-02-13T04:27:00;103450;;;5.6;100.0
48680;BME280;34475;51.658;5.634;2023-02-13T04:28:00;103450;;;5.6;100.0
48680;BME280;34475;51.658;5.634;2023-02-13T04:29:00;103450;;;5.5;100.0
48680;BME280;34475;51.658;5.634;2023-02-13T04:30:00;103450;;;5.5;100.0
48680;BME280;34475;51.658;5.634;2023-02-13T04:31:00;103450;;;5.5;100.0
48680;BME280;34475;51.658;5.634;2023-02-13T04:32:00;103450;;;5.5;100.0
48680;BME280;34475;51.658;5.634;2023-02-13T04:33:00;103450;;;5.4;100.0
48680;BME280;34475;51.658;5.634;2023-02-13T04:34:00;103450;;;5.4;100.0
48680;BME280;34475;51.658;5.634;2023-02-13T04:35:00;103450;;;5.4;100.0
48680;BME280;34475;51.658;5.634;2023-02-13T04:36:00;103450;;;5.4;100.0
48680;BME280;34475;51.658;5.634;2023-02-13T04:37:00;103450;;;5.4;100.0
48680;BME280;34475;51.658;5.634;2023-02-13T04:38:00;103450;;;5.4;100.0
48680;BME280;34475;51.658;5.634;2023-02-13T04:39:00;103450;;;5.4;100.0
48680;BME280;34475;51.658;5.634;2023-02-13T04:40:00;103450;;;5.4;100.0
48680;BME280;34475;51.658;5.634;2023-02-13T04:41:00;103450;;;5.3;100.0
48680;BME280;34475;51.658;5.634;2023-02-13T04:42:00;103450;;;5.3;100.0
48680;BME280;34475;51.658;5.634;2023-02-13T04:43:00;103450;;;5.3;100.0
48680;BME280;34475;51.658;5.634;2023-02-13T04:44:00;103450;;;5.3;100.0
48680;BME280;34475;51.658;5.634;2023-02-13T04:45:00;103440;;;5.3;100.0
48680;BME280;34475;51.658;5.634;2023-02-13T04:46:00;103440;;;5.3;100.0
48680;BME280;34475;51.658;5.634;2023-02-13T04:47:00;103440;;;5.3;100.0
48680;BME280;34475;51.658;5.634;2023-02-13T04:48:00;103440;;;5.3;100.0
48680;BME280;34475;51.658;5.634;2023-02-13T04:49:00;103440;;;5.2;100.0
48680;BME280;34475;51.658;5.634;2023-02-13T04:50:00;103440;;;5.2;100.0
48680;BME280;34475;51.658;5.634;2023-02-13T04:51:00;103440;;;5.3;100.0
48680;BME280;34475;51.658;5.634;2023-02-13T04:52:00;103440;;;5.3;100.0
48680;BME280;34475;51.658;5.634;2023-02-13T04:53:00;103440;;;5.2;100.0
48680;BME280;34475;51.658;5.634;2023-02-13T04:54:00;103440;;;5.2;100.0
48680;BME280;34475;51.658;5.634;2023-02-13T04:55:00;103440;;;5.2;100.0
48680;BME280;34475;51.658;5.634;2023-02-13T04:56:00;103440;;;5.2;100.0
48680;BME280;34475;51.658;5.634;2023-02-13T04:57:00;103430;;;5.3;100.0
48680;BME280;34475;51.658;5.634;2023-02-13T04:58:00;103430;;;5.3;100.0
48680;BME280;34475;51.658;5.634;2023-02-13T04:59:00;103430;;;5.2;100.0
48680;BME280;34475;51.658;5.634;2023-02-13T05:00:00;103430;;;5.2;100.0
48680;BME280;34475;51.658;5.634;2023-02-13T05:01:00;103430;;;5.1;100.0
48680;BME280;34475;51.658;5.634;2023-02-13T05:02:00;103430;;;5.1;100.0
48680;BME280;34475;51.658;5.634;2023-02-13T05:03:04;103430;;;5.2;100.0
48680;BME280;34475;51.658;5.634;2023-02-13T05:04:00;103430;;;5.2;100.0
48680;BME280;34475;51.658;5.634;2023-02-13T05:05:00;103430;;;5.1;100.0
48680;BME280;34475;51.658;5.634;2023-02-13T05:06:00;103430;;;5.1;100.0
48680;BME280;34475;51.658;5.634;2023-02-13T05:07:00;103430;;;5.1;100.0
48680;BME280;34475;51.658;5.634;2023-02-13T05:08:00;103430;;;5.1;100.0
48680;BME280;34475;51.658;5.634;2023-02-13T05:09:00;103430;;;5.1;100.0
48680;BME280;34475;51.658;5.634;2023-02-13T05:10:00;103430;;;5.1;100.0
48680;BME280;34475;51.658;5.634;2023-02-13T05:11:00;103420;;;5.0;100.0
48680;BME280;34475;51.658;5.634;2023-02-13T05:12:00;103420;;;5.0;100.0
48680;BME280;34475;51.658;5.634;2023-02-13T05:13:00;103430;;;5.0;100.0
48680;BME280;34475;51.658;5.634;2023-02-13T05:14:00;103430;;;5.0;100.0
48680;BME280;34475;51.658;5.634;2023-02-13T05:15:00;103430;;;4.9;100.0
48680;BME280;34475;51.658;5.634;2023-02-13T05:16:00;103430;;;4.9;100.0
48680;BME280;34475;51.658;5.634;2023-02-13T05:17:00;103430;;;4.9;100.0
48680;BME280;34475;51.658;5.634;2023-02-13T05:18:00;103430;;;4.9;100.0
48680;BME280;34475;51.658;5.634;2023-02-13T05:19:00;103430;;;4.9;100.0
48680;BME280;34475;51.658;5.634;2023-02-13T05:20:00;103430;;;4.9;100.0
48680;BME280;34475;51.658;5.634;2023-02-13T05:21:00;103430;;;4.9;100.0
48680;BME280;34475;51.658;5.634;2023-02-13T05:22:00;103430;;;4.9;100.0
48680;BME280;34475;51.658;5.634;2023-02-13T05:23:00;103430;;;4.9;100.0
48680;BME280;34475;51.658;5.634;2023-02-13T05:24:00;103430;;;4.9;100.0
48680;BME280;34475;51.658;5.634;2023-02-13T05:25:00;103430;;;4.8;100.0
48680;BME280;34475;51.658;5.634;2023-02-13T05:26:00;103430;;;4.8;100.0
48680;BME280;34475;51.658;5.634;2023-02-13T05:27:00;103430;;;4.8;100.0
48680;BME280;34475;51.658;5.634;2023-02-13T05:28:00;103430;;;4.8;100.0
48680;BME280;34475;51.658;5.634;2023-02-13T05:29:00;103420;;;4.8;100.0
48680;BME280;34475;51.658;5.634;2023-02-13T05:30:00;103420;;;4.8;100.0
48680;BME280;34475;51.658;5.634;2023-02-13T05:31:00;103420;;;4.8;100.0
48680;BME280;34475;51.658;5.634;2023-02-13T05:32:00;103420;;;4.8;100.0
48680;BME280;34475;51.658;5.634;2023-02-13T05:33:00;103420;;;4.8;100.0
48680;BME280;34475;51.658;5.634;2023-02-13T05:34:00;103420;;;4.8;100.0
48680;BME280;34475;51.658;5.634;2023-02-13T05:35:00;103420;;;4.7;100.0
48680;BME280;34475;51.658;5.634;2023-02-13T05:36:00;103420;;;4.7;100.0
48680;BME280;34475;51.658;5.634;2023-02-13T05:37:00;103420;;;4.7;100.0
48680;BME280;34475;51.658;5.634;2023-02-13T05:38:00;103420;;;4.7;100.0
48680;BME280;34475;51.658;5.634;2023-02-13T05:39:00;103420;;;4.7;100.0
48680;BME280;34475;51.658;5.634;2023-02-13T05:40:00;103420;;;4.7;100.0
48680;BME280;34475;51.658;5.634;2023-02-13T05:41:00;103430;;;4.6;100.0
48680;BME280;34475;51.658;5.634;2023-02-13T05:42:00;103430;;;4.6;100.0
48680;BME280;34475;51.658;5.634;2023-02-13T05:43:00;103420;;;4.6;100.0
48680;BME280;34475;51.658;5.634;2023-02-13T05:44:00;103420;;;4.6;100.0
48680;BME280;34475;51.658;5.634;2023-02-13T05:45:00;103420;;;4.6;100.0
48680;BME280;34475;51.658;5.634;2023-02-13T05:46:01;103420;;;4.6;100.0
48680;BME280;34475;51.658;5.634;2023-02-13T05:47:00;103420;;;4.5;100.0
48680;BME280;34475;51.658;5.634;2023-02-13T05:48:00;103420;;;4.5;100.0
48680;BME280;34475;51.658;5.634;2023-02-13T05:49:00;103420;;;4.5;100.0
48680;BME280;34475;51.658;5.634;2023-02-13T05:50:00;103420;;;4.5;100.0
48680;BME280;34475;51.658;5.634;2023-02-13T05:51:00;103420;;;4.4;100.0
48680;BME280;34475;51.658;5.634;2023-02-13T05:52:00;103420;;;4.4;100.0
48680;BME280;34475;51.658;5.634;2023-02-13T05:53:00;103420;;;4.4;100.0
48680;BME280;34475;51.658;5.634;2023-02-13T05:54:00;103420;;;4.4;100.0
48680;BME280;34475;51.658;5.634;2023-02-13T05:55:00;103420;;;4.4;100.0
48680;BME280;34475;51.658;5.634;2023-02-13T05:56:00;103420;;;4.4;100.0
48680;BME280;34475;51.658;5.634;2023-02-13T05:57:00;103420;;;4.4;100.0
48680;BME280;34475;51.658;5.634;2023-02-13T05:58:00;103420;;;4.4;100.0
48680;BME280;34475;51.658;5.634;2023-02-13T05:59:00;103420;;;4.4;100.0
48680;BME280;34475;51.658;5.634;2023-02-13T06:00:00;103420;;;4.4;100.0
48680;BME280;34475;51.658;5.634;2023-02-13T06:01:00;103420;;;4.3;100.0
48680;BME280;34475;51.658;5.634;2023-02-13T06:02:00;103420;;;4.3;100.0
48680;BME280;34475;51.658;5.634;2023-02-13T06:03:00;103430;;;4.3;100.0
48680;BME280;34475;51.658;5.634;2023-02-13T06:04:00;103430;;;4.3;100.0
48680;BME280;34475;51.658;5.634;2023-02-13T06:05:00;103420;;;4.3;100.0
48680;BME280;34475;51.658;5.634;2023-02-13T06:06:00;103420;;;4.3;100.0